Time;durP1;ratioP1;P1;durP2;ratioP2;P2;SDS_P1;SDS_P2;PMS_P1;PMS_P2;Temp;Humidity;BMP_temperature;BMP_pressure;BME280_temperature;BME280_humidity;BME280_pressure;Samples;Min_cycle;Max_cycle;Signal;HPM_P1;HPM_P2
2023/08/08 00:00:57;;;;;;;3.00;2.67;;;;;;;-144.30;52.08;84110.47;5086939;28;20714;-53
2023/08/08 00:03:57;;;;;;;5.18;4.10;;;;;;;-144.30;52.05;84084.66;5087772;28;20253;-54
2023/08/08 00:06:47;;;;;;;3.47;3.28;;;;;;;-144.30;52.01;84038.94;5088602;28;20252;-50
2023/08/08 00:09:47;;;;;;;2.45;2.25;;;;;;;-144.30;51.91;84034.97;5087216;28;20219;-49
2023/08/08 00:12:40;;;;;;;2.38;2.28;;;;;;;-144.30;52.13;84120.41;5088640;28;20202;-49
2023/08/08 00:15:32;;;;;;;2.85;2.50;;;;;;;-144.30;52.34;84082.66;5088331;28;20209;-53
2023/08/08 00:18:26;;;;;;;3.60;2.75;;;;;;;-144.30;52.51;84132.34;5086953;28;20322;-54
2023/08/08 00:21:11;;;;;;;3.13;2.92;;;;;;;-144.30;52.85;84110.47;5088381;28;20203;-54
2023/08/08 00:23:42;;;;;;;3.78;2.30;;;;;;;-144.30;52.91;84104.50;5088506;28;20195;-53
2023/08/08 00:26:39;;;;;;;2.88;2.67;;;;;;;-144.30;53.12;84122.41;5088653;28;20195;-53
2023/08/08 00:29:35;;;;;;;3.28;2.97;;;;;;;-144.30;53.05;84108.50;5088109;28;20724;-54
2023/08/08 00:32:26;;;;;;;5.60;5.20;;;;;;;-144.30;53.31;84106.50;5088254;28;20218;-51
2023/08/08 00:35:32;;;;;;;3.80;3.10;;;;;;;-144.30;53.13;84100.53;5092301;28;20612;-50
2023/08/08 00:41:16;;;;;;;4.97;2.55;;;;;;;-144.30;54.06;84132.34;5091141;28;20283;-54
2023/08/08 00:44:15;;;;;;;2.70;2.10;;;;;;;-144.30;54.65;84156.19;5091700;28;20210;-51
2023/08/08 00:47:02;;;;;;;2.92;2.70;;;;;;;-144.30;55.06;84132.34;5091344;28;20656;-54
2023/08/08 00:49:48;;;;;;;2.50;2.30;;;;;;;-144.30;55.40;84128.34;5091470;28;20272;-54
2023/08/08 00:52:39;;;;;;;2.25;2.15;;;;;;;-144.30;55.58;84132.34;5091873;28;20210;-54
2023/08/08 00:55:41;;;;;;;2.22;2.13;;;;;;;-144.30;55.61;84140.28;5091664;28;20282;-53
2023/08/08 00:58:18;;;;;;;1.90;1.80;;;;;;;-144.30;55.51;84140.28;5091394;28;20582;-54
2023/08/08 01:01:08;;;;;;;2.10;2.00;;;;;;;-144.30;55.65;84104.50;5091139;28;20195;-54
2023/08/08 01:10:08;;;;;;;2.38;2.28;;;;;;;-144.30;56.48;84130.34;5091529;28;20560;-49
2023/08/08 01:12:53;;;;;;;1.90;1.80;;;;;;;-144.30;56.73;84191.94;5089802;28;20227;-51
2023/08/08 01:18:59;;;;;;;1.90;1.80;;;;;;;-144.30;57.40;84197.91;5091576;28;20214;-51
2023/08/08 01:21:41;;;;;;;1.33;1.27;;;;;;;-144.30;57.29;84166.13;5091484;28;20651;-55
2023/08/08 01:24:47;;;;;;;1.80;1.70;;;;;;;-144.30;57.67;84186.00;5090747;28;20278;-54
2023/08/08 01:30:46;;;;;;;1.73;1.63;;;;;;;-144.30;57.33;84029.00;5088333;28;20644;-54
2023/08/08 01:33:44;;;;;;;2.58;1.58;;;;;;;-144.30;57.38;84184.00;5091116;28;20279;-49
2023/08/08 01:36:35;;;;;;;1.77;1.50;;;;;;;-144.30;57.17;84199.91;5089342;28;20594;-50
2023/08/08 01:39:29;;;;;;;1.98;1.48;;;;;;;-144.30;56.37;84189.97;5090541;28;20245;-51
2023/08/08 01:42:25;;;;;;;1.08;1.05;;;;;;;-144.30;56.02;84197.91;5089903;28;20206;-52
2023/08/08 01:45:14;;;;;;;4.70;0.90;;;;;;;-144.30;56.05;84215.78;5090304;28;20602;-55
2023/08/08 01:48:04;;;;;;;1.30;1.20;;;;;;;-144.30;56.12;84235.66;5090003;28;20230;-54
2023/08/08 01:51:03;;;;;;;;;;;;;;;;;;;;;
2023/08/08 01:53:33;;;;;;;1.27;1.10;;;;;;;-144.30;56.65;84277.41;5080140;28;20203;-54
2023/08/08 01:56:18;;;;;;;0.98;0.98;;;;;;;-144.30;57.08;84213.81;5090758;28;20504;-54
2023/08/08 01:59:22;;;;;;;1.00;0.80;;;;;;;-144.30;57.18;84259.50;5090245;28;20286;-55
2023/08/08 02:02:17;;;;;;;0.70;0.70;;;;;;;-144.30;57.22;84271.44;5090341;28;20249;-50
2023/08/08 02:05:02;;;;;;;0.82;0.82;;;;;;;-144.30;57.60;84267.47;5090325;28;20283;-51
2023/08/08 02:07:52;;;;;;;2.10;1.42;;;;;;;-144.30;57.96;84311.19;5088950;28;20198;-54
2023/08/08 02:13:45;;;;;;;1.65;0.85;;;;;;;-144.30;57.94;84255.53;5089319;28;20207;-51
2023/08/08 02:23:18;;;;;;;1.10;1.10;;;;;;;-144.30;58.39;84331.06;4858256;27;7570663;-54
2023/08/08 02:26:07;;;;;;;1.25;1.25;;;;;;;-144.30;58.61;84329.06;5106550;28;20582;-56
2023/08/08 02:29:02;;;;;;;1.08;1.08;;;;;;;-144.30;58.81;84358.88;5107058;28;20234;-53
2023/08/08 02:34:55;;;;;;;0.90;0.90;;;;;;;-144.30;59.58;84382.72;5106512;28;20261;-55
2023/08/08 02:37:55;;;;;;;;;;;;;;;;;;;;;
2023/08/08 02:40:46;;;;;;;1.50;1.30;;;;;;;-144.30;60.72;84410.56;5096045;28;20224;-54
2023/08/08 02:43:53;;;;;;;;;;;;;;;;;;;;;
2023/08/08 02:46:48;;;;;;;1.95;1.58;;;;;;;-144.30;60.79;84386.72;5103929;28;20206;-50
2023/08/08 02:49:47;;;;;;;2.97;1.30;;;;;;;-144.30;61.23;84426.47;5105044;28;20238;-51
2023/08/08 02:52:49;;;;;;;1.27;1.27;;;;;;;-144.30;61.68;84436.38;5104473;28;20650;-50
2023/08/08 02:55:35;;;;;;;1.50;1.40;;;;;;;-144.30;61.91;84412.53;5103555;28;20203;-51
2023/08/08 02:58:25;;;;;;;1.55;1.42;;;;;;;-144.30;62.30;84406.59;5105395;28;20205;-55
2023/08/08 03:01:13;;;;;;;1.60;1.50;;;;;;;-144.30;62.82;84442.34;5105037;28;20633;-54
2023/08/08 03:04:00;;;;;;;1.20;1.20;;;;;;;-144.30;63.01;84448.31;5105429;28;20730;-55
2023/08/08 03:06:53;;;;;;;1.52;1.45;;;;;;;-144.30;62.99;84454.28;5105007;28;20205;-51
2023/08/08 03:09:49;;;;;;;1.40;1.40;;;;;;;-144.30;63.14;84458.25;5105028;28;20195;-55
2023/08/08 03:12:22;;;;;;;2.08;1.63;;;;;;;-144.30;63.21;84422.47;5103641;28;20195;-55
2023/08/08 03:14:58;;;;;;;2.08;1.30;;;;;;;-144.30;63.44;84450.31;5104989;28;20614;-50
2023/08/08 03:17:35;;;;;;;1.85;1.27;;;;;;;-144.30;64.08;84450.31;5106115;28;20584;-55
2023/08/08 03:20:09;;;;;;;1.20;1.20;;;;;;;-144.30;64.28;84466.19;5105391;28;20198;-55
2023/08/08 03:22:44;;;;;;;2.65;1.50;;;;;;;-144.30;65.19;84472.16;5064579;28;20310;-51
2023/08/08 03:25:12;;;;;;;3.70;2.10;;;;;;;-144.30;65.47;84474.16;5064649;28;20262;-55
2023/08/08 03:27:41;;;;;;;1.50;1.50;;;;;;;-144.30;66.12;84428.44;5064966;28;20626;-51
2023/08/08 03:30:29;;;;;;;1.25;1.15;;;;;;;-144.30;66.45;84474.16;5064956;28;20200;-50
2023/08/08 03:33:11;;;;;;;2.83;1.20;;;;;;;-144.30;66.70;84509.94;5054592;28;20744;-54
2023/08/08 03:36:03;;;;;;;;;;;;;;;;;;;;;
2023/08/08 03:42:02;;;;;;;1.27;1.23;;;;;;;-144.30;66.96;84458.25;5044122;28;20231;-54
2023/08/08 03:45:05;;;;;;;;;;;;;;;;;;;;;
2023/08/08 03:48:12;;;;;;;5.15;1.60;;;;;;;-144.30;74.33;84533.78;5031313;28;20205;-49
2023/08/08 03:50:58;;;;;;;3.78;1.70;;;;;;;-144.30;75.03;84500.00;5033370;28;20197;-49
2023/08/08 03:53:30;;;;;;;3.42;1.60;;;;;;;-144.30;79.17;84575.50;5048090;28;20204;-49
2023/08/08 03:56:09;;;;;;;6.50;2.55;;;;;;;-144.30;78.94;84597.38;5047161;28;20204;-55
2023/08/08 03:58:43;;;;;;;1.75;1.45;;;;;;;-144.30;79.48;84621.22;5048625;28;20725;-55
2023/08/08 04:01:19;;;;;;;1.77;1.27;;;;;;;-144.30;80.27;84621.22;5050666;28;20231;-55
2023/08/08 04:03:54;;;;;;;1.30;1.20;;;;;;;-144.30;79.93;84617.25;5050192;28;20579;-54
2023/08/08 04:06:23;;;;;;;1.55;1.50;;;;;;;-144.30;80.13;84617.25;5048787;28;20281;-50
2023/08/08 04:09:04;;;;;;;3.42;1.92;;;;;;;-144.30;78.89;84615.25;5050341;28;20274;-52
2023/08/08 04:14:50;;;;;;;7.32;2.95;;;;;;;-144.30;78.79;84583.47;5048995;28;20205;-51
2023/08/08 04:17:40;;;;;;;1.60;1.50;;;;;;;-144.30;78.54;84660.97;5050134;28;20212;-55
2023/08/08 04:20:21;;;;;;;6.53;2.47;;;;;;;-144.30;80.24;84680.84;5050280;28;20738;-55
2023/08/08 04:23:04;;;;;;;7.72;2.30;;;;;;;-144.30;83.85;84688.81;5049474;28;20607;-56
2023/08/08 04:25:39;;;;;;;12.40;2.80;;;;;;;-144.30;88.01;84710.66;5050753;28;20207;-57
2023/08/08 04:28:16;;;;;;;9.10;3.15;;;;;;;-144.30;90.22;84708.66;5050044;28;20295;-55
2023/08/08 04:30:54;;;;;;;4.00;1.77;;;;;;;-144.30;92.76;84754.38;5050614;28;20668;-55
2023/08/08 04:33:38;;;;;;;5.55;2.13;;;;;;;-144.30;95.93;84825.94;5050548;28;20240;-56
2023/08/08 04:36:17;;;;;;;2.90;1.98;;;;;;;-144.30;96.96;84823.94;5050332;28;20696;-52
2023/08/08 04:39:04;;;;;;;2.20;2.10;;;;;;;-144.30;96.47;84796.13;5049995;28;20247;-53
2023/08/08 04:42:01;;;;;;;3.83;2.17;;;;;;;-144.30;98.38;84857.75;5049960;28;20263;-56
2023/08/08 04:47:57;;;;;;;2.95;1.65;;;;;;;-144.30;99.03;84899.47;5049571;28;20204;-50
2023/08/08 04:50:41;;;;;;;1.95;1.85;;;;;;;-144.30;99.45;84841.84;5048959;28;20205;-52
2023/08/08 04:53:29;;;;;;;2.45;2.25;;;;;;;-144.30;100.00;84903.47;5047638;28;20196;-51
2023/08/08 04:56:09;;;;;;;2.42;2.15;;;;;;;-144.30;100.00;84885.56;5048871;28;20240;-55
2023/08/08 04:58:58;;;;;;;5.00;2.17;;;;;;;-144.30;100.00;84899.47;5047490;28;20204;-56
2023/08/08 05:01:55;;;;;;;3.70;2.10;;;;;;;-144.30;100.00;84917.38;5049275;28;20224;-52
2023/08/08 05:07:40;;;;;;;3.35;2.40;;;;;;;-144.30;100.00;84905.44;5031059;28;20584;-55
2023/08/08 05:10:31;;;;;;;2.60;2.40;;;;;;;-144.30;100.00;84903.47;5029940;28;20656;-55
2023/08/08 05:13:14;;;;;;;2.33;2.22;;;;;;;-144.30;100.00;84921.34;5029187;28;20190;-55
2023/08/08 05:15:56;;;;;;;4.80;2.40;;;;;;;-144.30;100.00;84889.53;5030315;28;20224;-51
2023/08/08 05:18:48;;;;;;;2.35;2.22;;;;;;;-144.30;100.00;84899.47;5027469;28;20701;-52
2023/08/08 05:21:36;;;;;;;2.72;2.33;;;;;;;-144.30;100.00;84919.34;5058736;28;20230;-52
2023/08/08 05:24:12;;;;;;;2.03;1.92;;;;;;;-144.30;100.00;84931.28;5089381;28;20191;-55
2023/08/08 05:26:54;;;;;;;2.22;2.13;;;;;;;-144.30;100.00;84879.59;5089947;28;20195;-51
2023/08/08 05:29:40;;;;;;;3.28;2.80;;;;;;;-144.30;100.00;84929.28;5089514;28;20199;-51
2023/08/08 05:32:17;;;;;;;2.65;2.45;;;;;;;-144.30;100.00;84905.44;5088771;28;20195;-54
2023/08/08 05:34:56;;;;;;;3.20;2.95;;;;;;;-144.30;100.00;84909.41;5088706;28;20206;-50
2023/08/08 05:37:43;;;;;;;3.00;2.80;;;;;;;-144.30;100.00;84939.25;5088612;28;20203;-51
2023/08/08 05:40:31;;;;;;;3.72;3.15;;;;;;;-144.30;100.00;84903.47;5089627;28;20199;-51
2023/08/08 05:43:16;;;;;;;3.08;2.63;;;;;;;-144.30;100.00;84881.59;5088471;28;20649;-52
2023/08/08 05:46:04;;;;;;;3.55;3.00;;;;;;;-144.30;100.00;84949.19;5087931;28;20206;-52
2023/08/08 05:48:55;;;;;;;2.90;2.70;;;;;;;-144.30;100.00;84917.38;5088940;28;20206;-55
2023/08/08 05:51:41;;;;;;;2.53;2.42;;;;;;;-144.30;100.00;84919.34;5089359;28;20195;-55
2023/08/08 05:54:09;;;;;;;2.50;2.30;;;;;;;-144.30;99.32;84901.47;5084337;28;20282;-55
2023/08/08 05:56:38;;;;;;;3.75;2.70;;;;;;;-144.30;99.76;84927.31;5085926;28;20752;-55
2023/08/08 05:59:07;;;;;;;3.10;2.90;;;;;;;-144.30;99.62;84939.25;5088707;28;20540;-55
2023/08/08 06:01:39;;;;;;;3.25;3.05;;;;;;;-144.30;99.96;84959.13;5086046;28;20223;-57
2023/08/08 06:04:10;;;;;;;5.53;3.70;;;;;;;-144.30;100.00;84963.09;5088447;28;20203;-56
2023/08/08 06:06:41;;;;;;;3.67;3.40;;;;;;;-144.30;100.00;84982.97;5086394;28;20196;-52
2023/08/08 06:09:12;;;;;;;3.88;3.53;;;;;;;-144.30;100.00;85008.81;5088520;28;20226;-53
2023/08/08 06:11:40;;;;;;;4.82;4.43;;;;;;;-144.30;100.00;84990.91;5088476;28;20187;-56
2023/08/08 06:14:13;;;;;;;3.67;3.45;;;;;;;-144.30;100.00;85046.56;5088632;28;20236;-52
2023/08/08 06:16:47;;;;;;;3.20;3.00;;;;;;;-144.30;99.60;85002.84;5086786;28;20195;-53
2023/08/08 06:19:18;;;;;;;5.32;3.47;;;;;;;-144.30;100.00;84996.88;5086076;28;20229;-50
2023/08/08 06:21:48;;;;;;;3.22;3.13;;;;;;;-144.30;99.01;85034.66;5088116;28;20231;-52
2023/08/08 06:24:18;;;;;;;4.83;3.67;;;;;;;-144.30;99.49;85034.66;5086205;28;20195;-51
2023/08/08 06:26:47;;;;;;;4.43;3.90;;;;;;;-144.30;99.14;84955.13;5088707;28;20244;-51
2023/08/08 06:29:22;;;;;;;4.47;3.72;;;;;;;-144.30;97.65;84980.97;5083316;28;20191;-51
2023/08/08 06:31:55;;;;;;;6.43;3.88;;;;;;;-144.30;98.14;85038.63;5088082;28;20198;-56
2023/08/08 06:34:25;;;;;;;3.87;3.67;;;;;;;-144.30;97.79;85010.78;5088354;28;20558;-56
2023/08/08 06:36:55;;;;;;;3.58;3.38;;;;;;;-144.30;96.88;84992.91;5088359;28;20287;-52
2023/08/08 06:39:27;;;;;;;3.63;3.42;;;;;;;-144.30;96.46;84986.94;5088817;28;20195;-56
2023/08/08 06:41:59;;;;;;;3.70;3.40;;;;;;;-144.30;96.31;84953.16;5085732;28;20223;-56
2023/08/08 06:44:29;;;;;;;4.22;3.92;;;;;;;-144.30;95.40;84933.28;5088507;28;20231;-56
2023/08/08 06:47:01;;;;;;;6.57;3.60;;;;;;;-144.30;95.02;84951.16;5085403;28;20236;-56
2023/08/08 06:49:33;;;;;;;4.10;3.80;;;;;;;-144.30;94.07;84965.06;5089021;28;20199;-51
2023/08/08 06:52:04;;;;;;;6.97;5.47;;;;;;;-144.30;94.70;84943.22;5089204;28;20286;-50
2023/08/08 06:54:33;;;;;;;4.78;4.40;;;;;;;-144.30;95.45;84935.25;5089212;28;20195;-51
2023/08/08 06:57:06;;;;;;;6.07;5.68;;;;;;;-144.30;94.53;84899.47;5089175;28;20203;-51
2023/08/08 06:59:37;;;;;;;5.32;4.82;;;;;;;-144.30;93.23;84891.53;5089088;28;20195;-56
2023/08/08 07:02:04;;;;;;;5.35;4.85;;;;;;;-144.30;92.53;84851.78;5086285;28;20227;-55
2023/08/08 07:04:32;;;;;;;7.05;5.25;;;;;;;-144.30;92.07;84867.69;5083771;28;20199;-51
2023/08/08 07:06:59;;;;;;;9.57;8.77;;;;;;;-144.30;91.39;84859.72;5088698;28;20597;-52
2023/08/08 07:09:27;;;;;;;8.40;7.70;;;;;;;-144.30;92.14;84875.63;5092625;28;20199;-56
2023/08/08 07:11:54;;;;;;;9.45;7.50;;;;;;;-144.30;90.84;84845.81;5092128;28;20604;-55
2023/08/08 07:14:21;;;;;;;6.13;5.53;;;;;;;-144.30;91.38;84841.84;5086425;28;20199;-56
2023/08/08 07:16:54;;;;;;;8.73;7.70;;;;;;;-144.30;89.15;84790.16;5089788;28;20199;-56
2023/08/08 07:19:22;;;;;;;7.07;6.43;;;;;;;-144.30;90.36;84851.78;5091540;28;20202;-56
2023/08/08 07:21:53;;;;;;;9.80;7.07;;;;;;;-144.30;91.42;84835.88;5089165;28;20611;-56
2023/08/08 07:24:28;;;;;;;6.50;5.90;;;;;;;-144.30;91.50;84804.06;5091513;28;20726;-51
2023/08/08 07:27:03;;;;;;;4.88;4.47;;;;;;;-144.30;88.62;84819.97;5092595;28;20659;-50
2023/08/08 07:29:33;;;;;;;4.43;4.03;;;;;;;-144.30;89.73;84784.19;5092991;28;20272;-52
2023/08/08 07:32:06;;;;;;;3.50;3.30;;;;;;;-144.30;87.25;84718.63;5092237;28;20684;-52
2023/08/08 07:34:35;;;;;;;3.85;3.65;;;;;;;-144.30;87.29;84688.81;5092472;28;20744;-51
2023/08/08 07:37:07;;;;;;;4.07;3.53;;;;;;;-144.30;85.83;84680.84;5092009;28;20278;-52
2023/08/08 07:39:36;;;;;;;3.75;3.45;;;;;;;-144.30;84.87;84609.31;5092463;28;20213;-54
2023/08/08 07:42:06;;;;;;;5.15;3.53;;;;;;;-144.30;84.17;84637.13;5091462;28;20314;-52
2023/08/08 07:44:38;;;;;;;3.70;2.92;;;;;;;-144.30;82.83;84651.03;5092338;28;20196;-51
2023/08/08 07:47:10;;;;;;;6.65;3.20;;;;;;;-144.30;82.44;84662.97;5092073;28;20191;-51
2023/08/08 07:49:43;;;;;;;5.38;3.13;;;;;;;-144.30;80.84;84666.94;5085547;28;20292;-52
2023/08/08 07:52:12;;;;;;;3.00;2.80;;;;;;;-144.30;81.64;84651.03;5089223;28;20200;-51
2023/08/08 07:54:40;;;;;;;3.25;3.05;;;;;;;-144.30;82.23;84716.63;5091573;28;20218;-51
2023/08/08 07:57:10;;;;;;;3.70;3.40;;;;;;;-144.30;82.98;84655.00;5091387;28;20195;-52
2023/08/08 07:59:39;;;;;;;4.57;4.28;;;;;;;-144.30;83.63;84686.81;5091437;28;20195;-52
2023/08/08 08:02:10;;;;;;;4.28;3.97;;;;;;;-144.30;83.32;84617.25;5091101;28;20215;-51
2023/08/08 08:04:39;;;;;;;3.60;3.40;;;;;;;-144.30;83.61;84619.22;5090928;28;20274;-52
2023/08/08 08:07:08;;;;;;;3.58;3.28;;;;;;;-144.30;83.00;84684.81;5091726;28;20248;-51
2023/08/08 08:09:37;;;;;;;3.90;3.60;;;;;;;-144.30;82.38;84674.88;5091861;28;20660;-55
2023/08/08 08:12:08;;;;;;;3.80;3.50;;;;;;;-144.30;82.39;84629.19;5091601;28;20203;-51
2023/08/08 08:14:38;;;;;;;5.25;3.35;;;;;;;-144.30;81.50;84631.16;5089555;28;20207;-51
2023/08/08 08:17:11;;;;;;;5.38;4.88;;;;;;;-144.30;80.07;84682.84;5089027;28;20199;-51
2023/08/08 08:19:46;;;;;;;3.92;2.97;;;;;;;-144.30;79.56;84660.97;5085912;28;20203;-51
2023/08/08 08:22:15;;;;;;;4.25;3.95;;;;;;;-144.30;79.35;85181.75;5089343;28;20225;-51
2023/08/08 08:24:43;;;;;;;5.90;3.97;;;;;;;-144.30;79.30;84647.06;5088439;28;20222;-54
2023/08/08 08:27:12;;;;;;;5.85;3.42;;;;;;;-144.30;78.43;84601.34;5089569;28;20606;-55
2023/08/08 08:29:46;;;;;;;3.58;3.38;;;;;;;-144.30;77.57;84585.44;5090447;28;20579;-55
2023/08/08 08:32:21;;;;;;;4.43;4.00;;;;;;;-144.30;77.86;84567.56;5090777;28;20245;-54
2023/08/08 08:34:50;;;;;;;5.72;4.15;;;;;;;-144.30;78.44;84565.56;5081861;28;20206;-55
2023/08/08 08:37:22;;;;;;;4.22;3.63;;;;;;;-144.30;77.43;84539.75;5091197;28;20210;-54
2023/08/08 08:39:56;;;;;;;4.90;3.58;;;;;;;-144.30;76.67;84500.00;5090999;28;20653;-56
2023/08/08 08:42:29;;;;;;;16.63;9.40;;;;;;;-144.30;75.04;84275.41;5091083;28;20225;-56
2023/08/08 08:45:24;;;;;;;5.28;4.60;;;;;;;-144.30;70.27;84184.00;5091057;28;20195;-52
2023/08/08 08:47:59;;;;;;;3.58;3.28;;;;;;;-144.30;67.33;83969.38;5089758;28;20195;-52
2023/08/08 08:50:34;;;;;;;2.42;2.33;;;;;;;-144.30;65.04;83885.94;5091052;28;20753;-52
2023/08/08 08:53:06;;;;;;;2.97;2.40;;;;;;;-144.30;59.09;83772.66;5090872;28;20198;-55
2023/08/08 08:55:38;;;;;;;2.55;2.10;;;;;;;-144.30;55.86;83609.75;5089694;28;20667;-55
2023/08/08 08:58:10;;;;;;;2.13;2.03;;;;;;;-144.30;54.42;83538.22;5089051;28;20286;-51
2023/08/08 09:00:38;;;;;;;2.20;2.10;;;;;;;-144.30;51.58;83502.44;5090836;28;20195;-54
2023/08/08 09:03:10;;;;;;;2.03;1.92;;;;;;;-144.30;52.01;83528.28;5090395;28;20242;-55
2023/08/08 09:05:44;;;;;;;2.35;1.70;;;;;;;-144.30;51.25;83419.00;5090740;28;20738;-55
2023/08/08 09:08:16;;;;;;;2.55;1.95;;;;;;;-144.30;50.57;83496.50;5090761;28;20677;-54
2023/08/08 09:10:48;;;;;;;2.17;1.98;;;;;;;-144.30;50.43;83456.75;5090712;28;20708;-55
2023/08/08 09:13:29;;;;;;;2.20;2.10;;;;;;;-144.30;49.27;83355.41;5090554;28;20582;-52
2023/08/08 09:16:18;;;;;;;2.47;2.10;;;;;;;-144.30;48.39;83279.94;5090137;28;20631;-55
2023/08/08 09:18:48;;;;;;;1.80;1.70;;;;;;;-144.30;45.85;83198.47;5090527;28;20203;-53
2023/08/08 09:21:21;;;;;;;5.50;2.45;;;;;;;-144.30;44.40;83126.94;5090303;28;20284;-52
2023/08/08 09:23:52;;;;;;;2.25;1.73;;;;;;;-144.30;43.69;82916.38;5090407;28;20229;-55
2023/08/08 09:26:23;;;;;;;2.15;1.60;;;;;;;-144.30;42.27;83029.59;5090402;28;20203;-55
2023/08/08 09:28:57;;;;;;;1.60;1.50;;;;;;;-144.30;42.16;83019.69;5090226;28;20195;-55
2023/08/08 09:31:31;;;;;;;2.42;1.42;;;;;;;-144.30;41.77;82956.09;5089820;28;20217;-54
2023/08/08 09:34:06;;;;;;;1.67;1.42;;;;;;;-144.30;41.23;82968.03;5078486;28;20683;-54
2023/08/08 09:36:41;;;;;;;4.15;2.00;;;;;;;-144.30;41.10;82956.09;5070079;28;20195;-54
2023/08/08 09:39:12;;;;;;;2.10;1.70;;;;;;;-144.30;41.72;82938.22;5069824;28;20272;-54
2023/08/08 09:41:48;;;;;;;2.35;1.95;;;;;;;-144.30;41.34;82896.50;5070405;28;20581;-52
2023/08/08 09:44:26;;;;;;;2.15;1.55;;;;;;;-144.30;38.51;82783.28;5069507;28;20727;-52
2023/08/08 09:47:00;;;;;;;2.03;1.33;;;;;;;-144.30;36.36;82773.34;5068020;28;20279;-53
2023/08/08 09:49:42;;;;;;;1.60;1.50;;;;;;;-144.30;36.09;82755.47;5067411;28;20215;-52
2023/08/08 09:52:35;;;;;;;2.45;1.42;;;;;;;-144.30;37.08;82908.44;5069129;28;20227;-52
2023/08/08 09:55:05;;;;;;;1.80;1.70;;;;;;;-144.30;38.56;82999.81;5066991;28;20199;-52
2023/08/08 09:58:03;;;;;;;2.00;1.90;;;;;;;-144.30;39.11;83029.59;5069712;28;20249;-52
2023/08/08 10:00:50;;;;;;;1.67;1.60;;;;;;;-144.30;38.62;82968.03;5069040;28;20204;-55
2023/08/08 10:03:30;;;;;;;4.97;1.98;;;;;;;-144.30;36.87;82817.06;5069634;28;20227;-51
2023/08/08 10:06:09;;;;;;;3.55;1.70;;;;;;;-144.30;35.96;82672.03;5069926;28;20192;-52
2023/08/08 10:09:04;;;;;;;5.18;1.73;;;;;;;-144.30;35.34;82616.44;5068420;28;20196;-54
2023/08/08 10:12:07;;;;;;;1.33;1.30;;;;;;;-144.30;34.28;82624.38;5069089;28;20702;-55
2023/08/08 10:15:07;;;;;;;1.55;1.50;;;;;;;-144.30;35.19;82755.47;5069467;28;20192;-55
2023/08/08 10:17:39;;;;;;;1.33;1.30;;;;;;;-144.30;34.16;82777.31;5069191;28;20246;-55
2023/08/08 10:20:11;;;;;;;1.77;1.23;;;;;;;-144.30;35.00;82821.03;5069220;28;20195;-54
2023/08/08 10:22:44;;;;;;;1.10;1.10;;;;;;;-144.30;34.48;82775.34;5068931;28;20236;-55
2023/08/08 10:25:21;;;;;;;2.35;1.75;;;;;;;-144.30;34.67;82781.28;5069031;28;20192;-55
2023/08/08 10:27:50;;;;;;;1.73;1.63;;;;;;;-144.30;35.15;82870.69;5069091;28;20286;-55
2023/08/08 10:30:19;;;;;;;4.20;2.47;;;;;;;-144.30;36.11;82864.72;5067971;28;20564;-52
2023/08/08 10:32:52;;;;;;;2.05;1.40;;;;;;;-144.30;35.28;82924.31;5069232;28;20215;-52
2023/08/08 10:35:20;;;;;;;1.88;1.77;;;;;;;-144.30;35.58;83105.09;5069218;28;20711;-52
2023/08/08 10:37:55;;;;;;;2.38;2.17;;;;;;;-144.30;36.37;83226.28;5069231;28;20203;-54
2023/08/08 10:40:37;;;;;;;4.35;2.42;;;;;;;-144.30;37.25;83238.19;5069018;28;20191;-52
2023/08/08 10:43:13;;;;;;;2.72;1.98;;;;;;;-144.30;37.18;83279.94;5070877;28;20615;-55
2023/08/08 10:45:45;;;;;;;3.95;1.60;;;;;;;-144.30;36.97;83281.91;5073046;28;20298;-55
2023/08/08 10:48:16;;;;;;;1.65;1.55;;;;;;;-144.30;37.27;83321.66;5072751;28;20236;-55
2023/08/08 10:50:46;;;;;;;5.03;2.30;;;;;;;-144.30;38.10;83381.25;5072766;28;20246;-51
2023/08/08 10:53:26;;;;;;;2.00;1.80;;;;;;;-144.30;38.22;83357.41;5072998;28;20203;-51
2023/08/08 10:56:06;;;;;;;2.90;1.75;;;;;;;-144.30;38.20;83099.13;5072669;28;20667;-52
2023/08/08 10:58:41;;;;;;;7.00;5.55;;;;;;;-144.30;38.03;83375.28;5072789;28;20198;-55
2023/08/08 11:01:16;;;;;;;1.70;1.60;;;;;;;-144.30;38.53;83460.72;5072407;28;20725;-52
2023/08/08 11:03:49;;;;;;;3.10;1.80;;;;;;;-144.30;39.31;83468.66;5072678;28;20219;-54
2023/08/08 11:06:21;;;;;;;2.92;2.40;;;;;;;-144.30;39.79;83552.13;5072641;28;20200;-56
2023/08/08 11:08:55;;;;;;;3.40;3.03;;;;;;;-144.30;39.27;83568.00;5072243;28;20290;-54
2023/08/08 11:11:24;;;;;;;6.75;2.63;;;;;;;-144.30;39.22;83572.00;5072396;28;20210;-53
2023/08/08 11:13:57;;;;;;;1.63;1.52;;;;;;;-144.30;38.56;83560.06;5072074;28;20196;-53
2023/08/08 11:16:27;;;;;;;3.92;2.38;;;;;;;-144.30;39.02;83538.22;5072333;28;20203;-51
2023/08/08 11:19:02;;;;;;;1.73;1.63;;;;;;;-144.30;39.65;83556.09;5072074;28;20229;-52
2023/08/08 11:21:39;;;;;;;2.20;2.10;;;;;;;-144.30;39.76;83556.09;5071990;28;20231;-55
2023/08/08 11:24:12;;;;;;;2.08;1.98;;;;;;;-144.30;39.38;83516.34;5072069;28;20227;-55
2023/08/08 11:26:47;;;;;;;2.88;2.78;;;;;;;-144.30;39.29;83506.41;5072347;28;20637;-55
2023/08/08 11:29:18;;;;;;;3.20;2.92;;;;;;;-144.30;39.18;83432.91;5072203;28;20203;-54
2023/08/08 11:31:51;;;;;;;1.98;1.67;;;;;;;-144.30;37.36;83399.13;5072324;28;20574;-54
2023/08/08 11:34:23;;;;;;;2.85;1.65;;;;;;;-144.30;36.25;83345.50;5071385;28;20192;-51
2023/08/08 11:36:55;;;;;;;5.45;4.00;;;;;;;-144.30;36.87;83365.34;5071741;28;20222;-54
2023/08/08 11:39:25;;;;;;;6.60;2.03;;;;;;;-144.30;38.31;83347.47;5071949;28;20199;-54
2023/08/08 11:41:55;;;;;;;4.35;2.10;;;;;;;-144.30;38.18;83401.13;5071813;28;20231;-54
2023/08/08 11:44:24;;;;;;;1.50;1.50;;;;;;;-144.30;38.18;83347.47;5071938;28;20219;-54
2023/08/08 11:46:55;;;;;;;2.22;1.73;;;;;;;-144.30;38.49;83415.03;5071829;28;20200;-52
2023/08/08 11:49:24;;;;;;;1.70;1.70;;;;;;;-144.30;38.40;83371.31;5071909;28;20200;-52
2023/08/08 11:51:56;;;;;;;3.95;2.20;;;;;;;-144.30;38.51;83393.16;5071666;28;20203;-50
2023/08/08 11:54:30;;;;;;;2.10;2.00;;;;;;;-144.30;38.03;83341.50;5071328;28;20279;-53
2023/08/08 11:56:59;;;;;;;2.15;1.80;;;;;;;-144.30;38.56;83456.75;5071499;28;20206;-52
2023/08/08 11:59:30;;;;;;;2.00;1.90;;;;;;;-144.30;38.01;83393.16;5071663;28;20200;-54
2023/08/08 12:01:59;;;;;;;3.60;1.52;;;;;;;-144.30;37.55;83403.09;5071554;28;20199;-52
2023/08/08 12:04:34;;;;;;;2.40;2.00;;;;;;;-144.30;38.31;83407.06;5071618;28;20691;-52
2023/08/08 12:07:10;;;;;;;2.42;2.28;;;;;;;-144.30;37.73;83355.41;5071451;28;20695;-54
2023/08/08 12:09:43;;;;;;;4.53;2.10;;;;;;;-144.30;37.81;83329.59;5083924;28;20199;-54
2023/08/08 12:12:12;;;;;;;2.03;1.92;;;;;;;-144.30;36.75;83357.41;5090460;28;20695;-55
2023/08/08 12:14:46;;;;;;;2.10;1.35;;;;;;;-144.30;36.48;83357.41;5091683;28;20257;-54
2023/08/08 12:17:13;;;;;;;1.90;1.80;;;;;;;-144.30;36.71;83363.38;5091617;28;20294;-54
2023/08/08 12:19:50;;;;;;;3.17;1.50;;;;;;;-144.30;36.53;83401.13;5091600;28;20235;-52
2023/08/08 12:22:17;;;;;;;2.38;2.20;;;;;;;-144.30;37.21;83411.06;5091300;28;20393;-55
2023/08/08 12:24:46;;;;;;;2.05;1.63;;;;;;;-144.30;38.21;83420.97;5091910;28;20215;-55
2023/08/08 12:27:14;;;;;;;2.40;1.90;;;;;;;-144.30;39.55;83446.81;5091371;28;20248;-52
2023/08/08 12:29:44;;;;;;;3.65;2.20;;;;;;;-144.30;40.55;83512.38;5091432;28;20282;-51
2023/08/08 12:32:13;;;;;;;2.83;1.70;;;;;;;-144.30;39.85;83540.19;5091205;28;20245;-52
2023/08/08 12:34:42;;;;;;;1.85;1.80;;;;;;;-144.30;41.12;83572.00;5091670;28;20196;-52
2023/08/08 12:37:09;;;;;;;2.30;2.13;;;;;;;-144.30;40.94;83623.66;5090964;28;20271;-51
2023/08/08 12:39:38;;;;;;;1.98;1.88;;;;;;;-144.30;40.40;83554.09;5091481;28;20191;-51
2023/08/08 12:42:09;;;;;;;2.22;1.90;;;;;;;-144.30;39.83;83619.66;5091158;28;20202;-51
2023/08/08 12:44:39;;;;;;;1.75;1.65;;;;;;;-144.30;39.21;83631.59;5091169;28;20219;-56
2023/08/08 12:47:09;;;;;;;1.70;1.60;;;;;;;-144.30;39.44;83659.41;5090954;28;20620;-55
2023/08/08 12:49:41;;;;;;;2.03;1.92;;;;;;;-144.30;39.27;83619.66;5091064;28;20196;-55
2023/08/08 12:52:10;;;;;;;1.95;1.85;;;;;;;-144.30;39.82;83566.03;5091225;28;20191;-55
2023/08/08 12:54:44;;;;;;;1.70;1.60;;;;;;;-144.30;38.39;83615.69;5091024;28;20221;-54